createdAt,value
2022-08-12T00:02:02.144Z,4.43
2022-08-12T00:05:57.166Z,4.43
2022-08-12T00:08:07.776Z,5.35
2022-08-12T00:10:10.157Z,6.25
2022-08-12T00:12:12.475Z,5.38
2022-08-12T00:14:15.112Z,5.50
2022-08-12T00:16:19.616Z,6.25
2022-08-12T00:18:22.037Z,4.85
2022-08-12T00:20:24.755Z,7.20
2022-08-12T00:22:33.822Z,6.32
2022-08-12T00:24:38.446Z,5.13
2022-08-12T00:26:44.066Z,5.35
2022-08-12T00:28:46.576Z,5.88
2022-08-12T00:30:49.297Z,6.00
2022-08-12T00:32:54.704Z,5.05
2022-08-12T00:35:00.417Z,5.15
2022-08-12T00:37:13.329Z,7.07
2022-08-12T00:39:17.024Z,6.10
2022-08-12T00:41:20.758Z,8.05
2022-08-12T00:43:26.145Z,8.45
2022-08-12T00:45:28.556Z,5.82
2022-08-12T00:47:33.185Z,4.35
2022-08-12T00:49:36.196Z,5.43
2022-08-12T00:51:40.677Z,5.60
2022-08-12T00:53:43.626Z,5.63
2022-08-12T00:55:46.176Z,5.15
2022-08-12T00:57:50.997Z,4.90
2022-08-12T01:00:00.128Z,6.97
2022-08-12T01:02:11.664Z,6.18
2022-08-12T01:04:20.552Z,6.10
2022-08-12T01:06:24.444Z,5.35
2022-08-12T01:08:26.732Z,6.35
2022-08-12T01:10:34.211Z,5.47
2022-08-12T01:12:39.443Z,5.90
2022-08-12T01:14:43.899Z,5.68
2022-08-12T01:16:47.616Z,6.20
2022-08-12T01:18:55.778Z,6.07
2022-08-12T01:21:25.898Z,6.25
2022-08-12T01:23:44.838Z,5.32
2022-08-12T01:25:55.580Z,5.43
2022-08-12T01:27:58.991Z,6.57
2022-08-12T01:30:09.663Z,5.63
2022-08-12T01:32:15.221Z,6.90
2022-08-12T01:34:35.797Z,6.68
2022-08-12T01:36:47.125Z,6.18
2022-08-12T01:38:51.759Z,5.28
2022-08-12T01:40:55.737Z,6.55
2022-08-12T01:43:05.856Z,5.03
2022-08-12T01:45:10.635Z,5.32
2022-08-12T01:47:41.785Z,7.30
2022-08-12T01:49:53.655Z,5.30
2022-08-12T01:52:21.551Z,5.47
2022-08-12T01:54:27.807Z,6.10
2022-08-12T01:56:40.656Z,6.07
2022-08-12T01:58:44.216Z,4.65
2022-08-12T02:00:57.744Z,5.80
2022-08-12T02:03:23.016Z,4.80
2022-08-12T02:05:50.155Z,7.05
2022-08-12T02:08:14.687Z,5.65
2022-08-12T02:10:50.004Z,5.60
2022-08-12T02:13:12.376Z,6.13
2022-08-12T02:15:27.654Z,4.60
2022-08-12T02:18:03.288Z,5.35
2022-08-12T02:20:35.139Z,4.97
2022-08-12T02:22:52.456Z,5.95
2022-08-12T02:25:18.155Z,4.40
2022-08-12T02:27:22.328Z,6.07
2022-08-12T02:29:25.615Z,6.47
2022-08-12T02:31:29.655Z,4.30
2022-08-12T02:33:36.375Z,5.53
2022-08-12T02:35:38.945Z,3.97
2022-08-12T02:37:43.895Z,4.65
2022-08-12T02:39:49.348Z,4.63
2022-08-12T02:41:54.974Z,5.28
2022-08-12T02:44:00.748Z,4.72
2022-08-12T02:46:15.204Z,5.47
2022-08-12T02:48:28.475Z,5.75
2022-08-12T02:50:34.931Z,5.85
2022-08-12T02:52:37.837Z,6.65
2022-08-12T02:54:46.015Z,4.25
2022-08-12T02:56:51.118Z,5.40
2022-08-12T02:58:54.755Z,6.82
2022-08-12T03:00:59.556Z,5.38
2022-08-12T03:03:07.175Z,5.53
2022-08-12T03:05:13.582Z,5.93
2022-08-12T03:07:56.315Z,5.18
2022-08-12T03:10:15.809Z,4.68
2022-08-12T03:12:21.438Z,5.35
2022-08-12T03:14:28.670Z,5.97
2022-08-12T03:16:33.073Z,5.35
2022-08-12T03:18:37.115Z,4.70
2022-08-12T03:20:39.447Z,5.13
2022-08-12T03:22:44.456Z,4.75
2022-08-12T03:24:51.316Z,5.07
2022-08-12T03:27:00.515Z,5.07
2022-08-12T03:29:06.356Z,5.40
2022-08-12T03:31:10.677Z,6.68
2022-08-12T03:33:14.657Z,4.57
2022-08-12T03:35:39.998Z,6.13
2022-08-12T03:37:45.894Z,8.90
2022-08-12T03:39:48.623Z,4.75
2022-08-12T03:42:09.981Z,6.43
2022-08-12T03:44:25.720Z,4.53
2022-08-12T03:46:34.705Z,4.88
2022-08-12T03:48:37.015Z,4.50
2022-08-12T03:50:40.294Z,4.65
2022-08-12T03:52:42.854Z,7.05
2022-08-12T03:54:45.255Z,5.93
2022-08-12T03:56:48.018Z,3.50
2022-08-12T03:58:50.466Z,5.70
2022-08-12T04:00:52.972Z,6.78
2022-08-12T04:02:56.976Z,8.73
2022-08-12T04:04:59.395Z,8.10
2022-08-12T04:07:08.052Z,13.70
2022-08-12T04:09:16.140Z,4.90
2022-08-12T04:11:19.675Z,4.75
2022-08-12T04:13:22.654Z,5.50
2022-08-12T04:15:26.935Z,6.68
2022-08-12T04:17:29.976Z,6.63
2022-08-12T04:19:34.664Z,6.35
2022-08-12T04:21:42.096Z,20.30
2022-08-12T04:24:02.817Z,8.32
2022-08-12T04:26:06.715Z,4.88
2022-08-12T04:28:14.097Z,5.57
2022-08-12T04:30:32.063Z,4.97
2022-08-12T04:32:39.610Z,4.25
2022-08-12T04:34:47.014Z,4.47
2022-08-12T04:36:49.582Z,4.78
2022-08-12T04:38:56.489Z,5.28
2022-08-12T04:41:03.527Z,6.20
2022-08-12T04:43:06.316Z,4.93
2022-08-12T04:45:30.410Z,8.52
2022-08-12T04:47:33.556Z,4.05
2022-08-12T04:49:36.464Z,6.13
2022-08-12T04:51:40.015Z,10.10
2022-08-12T04:53:43.574Z,5.03
2022-08-12T04:55:46.076Z,4.72
2022-08-12T04:57:48.340Z,5.03
2022-08-12T04:59:50.806Z,4.93
2022-08-12T05:01:54.038Z,4.88
2022-08-12T05:03:58.615Z,5.15
2022-08-12T05:06:02.757Z,3.90
2022-08-12T05:08:10.175Z,3.97
2022-08-12T05:10:12.954Z,5.65
2022-08-12T05:12:18.835Z,9.35
2022-08-12T05:14:21.395Z,4.90
2022-08-12T05:16:30.791Z,4.22
2022-08-12T05:18:39.736Z,4.20
2022-08-12T05:20:42.696Z,4.22
2022-08-12T05:22:46.179Z,5.68
2022-08-12T05:24:49.816Z,4.35
2022-08-12T05:26:52.215Z,3.60
2022-08-12T05:28:54.557Z,5.68
2022-08-12T05:30:59.143Z,3.53
2022-08-12T05:33:04.078Z,4.93
2022-08-12T05:35:08.996Z,6.45
2022-08-12T05:37:11.875Z,4.50
2022-08-12T05:39:14.551Z,4.55
2022-08-12T05:41:16.916Z,4.38
2022-08-12T05:43:21.255Z,4.25
2022-08-12T05:45:23.655Z,2.80
2022-08-12T05:47:38.485Z,4.22
2022-08-12T05:49:48.556Z,4.18
2022-08-12T05:51:51.175Z,3.35
2022-08-12T05:53:56.476Z,4.70
2022-08-12T05:56:00.715Z,3.70
2022-08-12T05:58:05.105Z,3.97
2022-08-12T06:00:08.244Z,3.35
2022-08-12T06:02:14.121Z,2.58
2022-08-12T06:04:16.455Z,5.10
2022-08-12T06:06:22.337Z,5.15
2022-08-12T06:08:25.657Z,3.55
2022-08-12T06:10:32.180Z,5.70
2022-08-12T06:12:35.056Z,4.10
2022-08-12T06:14:39.050Z,4.63
2022-08-12T06:16:42.017Z,4.28
2022-08-12T06:18:45.298Z,3.75
2022-08-12T06:20:48.355Z,4.43
2022-08-12T06:22:51.159Z,5.50
2022-08-12T06:24:57.057Z,5.18
2022-08-12T06:26:59.595Z,5.38
2022-08-12T06:29:02.043Z,6.55
2022-08-12T06:33:57.632Z,5.28
2022-08-12T06:35:50.423Z,4.97
2022-08-12T06:37:56.490Z,5.28
2022-08-12T06:40:03.581Z,5.18
2022-08-12T06:42:33.180Z,7.88
2022-08-12T06:44:29.325Z,5.30
2022-08-12T06:46:31.867Z,5.05
2022-08-12T06:48:34.120Z,6.40
2022-08-12T06:50:39.951Z,7.88
2022-08-12T06:52:44.395Z,5.70
2022-08-12T06:54:46.646Z,3.03
2022-08-12T06:58:06.986Z,3.95
2022-08-12T06:59:11.464Z,4.28
2022-08-12T07:01:16.084Z,3.40
2022-08-12T07:03:23.046Z,6.47
2022-08-12T07:05:27.433Z,3.78
2022-08-12T07:07:29.874Z,3.60
2022-08-12T07:10:07.088Z,4.93
2022-08-12T07:11:59.583Z,3.97
2022-08-12T07:14:13.044Z,3.45
2022-08-12T07:16:18.273Z,5.55
2022-08-12T07:18:21.793Z,5.28
2022-08-12T07:20:50.801Z,4.10
2022-08-12T07:22:48.453Z,5.00
2022-08-12T07:24:54.483Z,4.43
2022-08-12T07:26:57.045Z,4.63
2022-08-12T07:29:01.103Z,4.10
2022-08-12T07:31:19.144Z,5.30
2022-08-12T07:33:30.003Z,3.40
2022-08-12T07:35:40.562Z,5.43
2022-08-12T07:37:44.524Z,3.60
2022-08-12T07:39:50.592Z,4.20
2022-08-12T07:42:23.023Z,4.18
2022-08-12T07:46:55.694Z,4.88
2022-08-12T07:49:08.417Z,4.22
2022-08-12T07:51:12.463Z,2.65
2022-08-12T07:53:27.893Z,3.55
2022-08-12T07:55:30.135Z,4.07
2022-08-12T07:57:33.124Z,4.72
2022-08-12T07:59:35.273Z,3.30
2022-08-12T08:01:38.818Z,7.97
2022-08-12T08:03:51.564Z,4.70
2022-08-12T08:05:58.884Z,3.30
2022-08-12T08:08:18.206Z,4.82
2022-08-12T08:10:21.110Z,5.13
2022-08-12T08:12:54.102Z,4.78
2022-08-12T08:14:56.628Z,3.72
2022-08-12T08:17:02.024Z,6.30
2022-08-12T08:19:14.334Z,4.68
2022-08-12T08:21:16.964Z,3.78
2022-08-12T08:23:19.443Z,3.50
2022-08-12T08:25:36.221Z,4.32
2022-08-12T08:27:44.603Z,3.05
2022-08-12T08:29:49.542Z,3.70
2022-08-12T08:31:53.234Z,3.70
2022-08-12T08:34:09.533Z,6.80
2022-08-12T08:36:23.974Z,4.07
2022-08-12T08:38:32.640Z,3.05
2022-08-12T08:40:40.413Z,3.58
2022-08-12T08:42:51.483Z,3.63
2022-08-12T08:44:57.936Z,4.60
2022-08-12T08:47:07.051Z,3.25
2022-08-12T08:49:17.969Z,3.90
2022-08-12T08:51:36.299Z,3.13
2022-08-12T08:53:52.754Z,5.50
2022-08-12T08:56:20.828Z,2.88
2022-08-12T08:58:32.864Z,5.72
2022-08-12T09:00:39.133Z,2.88
2022-08-12T09:04:21.345Z,5.55
2022-08-12T09:06:02.907Z,4.03
2022-08-12T09:08:22.422Z,7.70
2022-08-12T09:11:01.733Z,4.18
2022-08-12T09:14:10.707Z,4.47
2022-08-12T09:20:50.685Z,4.78
2022-08-12T09:26:22.557Z,4.45
2022-08-12T09:28:53.035Z,5.90
2022-08-12T09:30:59.053Z,8.77
2022-08-12T09:33:14.304Z,3.60
2022-08-12T09:35:28.264Z,4.15
2022-08-12T09:37:55.172Z,4.95
2022-08-12T09:40:05.845Z,3.38
2022-08-12T09:42:42.984Z,3.85
2022-08-12T09:45:18.277Z,6.93
2022-08-12T09:47:14.877Z,4.40
2022-08-12T09:49:18.317Z,4.32
2022-08-12T09:51:38.385Z,3.35
2022-08-12T09:53:46.498Z,4.88
2022-08-12T09:56:58.902Z,4.93
2022-08-12T09:58:57.280Z,5.20
2022-08-12T10:00:54.243Z,4.00
2022-08-12T10:03:08.887Z,3.75
2022-08-12T10:08:30.825Z,4.53
2022-08-12T10:10:42.836Z,4.18
2022-08-12T10:15:15.380Z,4.22
2022-08-12T10:17:33.602Z,4.50
2022-08-12T10:19:38.806Z,4.80
2022-08-12T10:21:45.707Z,4.90
2022-08-12T10:23:57.887Z,5.03
2022-08-12T10:26:34.651Z,5.25
2022-08-12T10:28:25.337Z,6.03
2022-08-12T10:30:41.646Z,6.47
2022-08-12T10:32:56.146Z,5.90
2022-08-12T10:34:59.647Z,4.35
2022-08-12T10:38:36.043Z,6.07
2022-08-12T10:40:06.192Z,5.85
2022-08-12T10:42:18.382Z,3.15
2022-08-12T10:44:32.265Z,6.15
2022-08-12T10:46:39.494Z,4.70
2022-08-12T10:48:58.082Z,6.78
2022-08-12T10:52:04.525Z,3.78
2022-08-12T10:53:43.954Z,4.88
2022-08-12T10:55:56.050Z,4.25
2022-08-12T10:58:27.989Z,5.38
2022-08-12T11:00:34.631Z,3.53
2022-08-12T11:04:18.439Z,5.55
2022-08-12T11:07:06.571Z,3.95
2022-08-12T11:08:33.860Z,5.63
2022-08-12T11:10:01.565Z,5.32
2022-08-12T11:12:55.254Z,4.07
2022-08-12T11:14:49.336Z,6.85
2022-08-12T11:17:34.918Z,3.95
2022-08-12T11:19:31.031Z,4.53
2022-08-12T11:21:56.894Z,3.92
2022-08-12T11:23:57.777Z,5.38
2022-08-12T11:26:06.951Z,6.53
2022-08-12T11:28:09.957Z,5.97
2022-08-12T11:30:31.407Z,4.22
2022-08-12T11:32:38.889Z,6.05
2022-08-12T11:34:53.637Z,5.07
2022-08-12T11:37:04.802Z,6.72
2022-08-12T11:39:07.624Z,4.38
2022-08-12T11:41:14.685Z,5.47
2022-08-12T11:43:23.516Z,5.40
2022-08-12T11:45:30.245Z,3.75
2022-08-12T11:47:55.510Z,4.95
2022-08-12T11:49:59.166Z,4.75
2022-08-12T11:55:02.709Z,4.32
2022-08-12T12:14:07.444Z,6.30
2022-08-12T12:16:10.920Z,5.30
2022-08-12T12:25:12.916Z,4.82
2022-08-12T12:28:40.695Z,6.60
2022-08-12T12:32:53.439Z,5.72
2022-08-12T12:36:30.282Z,4.72
2022-08-12T12:43:42.795Z,4.80
2022-08-12T12:46:54.808Z,3.95
2022-08-12T12:49:06.853Z,4.40
2022-08-12T12:52:19.875Z,4.47
2022-08-12T13:09:22.300Z,6.00
2022-08-12T13:12:53.174Z,3.95
2022-08-12T13:19:25.070Z,4.05
2022-08-12T13:38:02.817Z,5.53
2022-08-12T13:40:07.188Z,4.70
2022-08-12T13:45:11.670Z,4.70
2022-08-12T13:47:19.687Z,8.48
2022-08-12T13:49:54.893Z,12.93
2022-08-12T13:53:16.669Z,8.73
2022-08-12T13:56:39.147Z,5.17
2022-08-12T13:59:11.805Z,4.32
2022-08-12T14:01:14.563Z,4.50
2022-08-12T14:08:21.304Z,6.55
2022-08-12T14:33:51.291Z,5.55
2022-08-12T14:36:37.041Z,6.45
2022-08-12T14:52:16.161Z,9.25
2022-08-12T14:56:59.369Z,4.65
2022-08-12T15:10:02.272Z,4.53
2022-08-12T15:18:55.183Z,6.68
2022-08-12T15:22:15.155Z,5.20
2022-08-12T15:31:21.178Z,5.82
2022-08-12T15:34:30.821Z,5.47
2022-08-12T15:36:53.859Z,4.95
2022-08-12T15:38:58.519Z,4.68
2022-08-12T15:41:01.723Z,5.38
2022-08-12T15:43:09.815Z,4.97
2022-08-12T15:45:23.530Z,5.50
2022-08-12T15:48:16.987Z,5.47
2022-08-12T15:50:29.032Z,6.60
2022-08-12T15:52:31.679Z,4.75
2022-08-12T15:54:50.658Z,5.55
2022-08-12T15:57:33.458Z,6.57
2022-08-12T16:02:50.596Z,8.30
2022-08-12T16:04:55.112Z,7.10
2022-08-12T16:07:30.935Z,6.00
2022-08-12T16:09:56.758Z,5.43
2022-08-12T16:12:06.053Z,5.60
2022-08-12T16:23:55.190Z,5.70
2022-08-12T16:26:14.747Z,5.22
2022-08-12T16:28:18.369Z,15.85
2022-08-12T16:30:31.456Z,5.80
2022-08-12T16:32:35.572Z,5.80
2022-08-12T16:36:58.805Z,5.75
2022-08-12T16:39:18.418Z,7.68
2022-08-12T16:42:18.308Z,5.45
2022-08-12T16:45:22.988Z,5.28
2022-08-12T16:53:59.313Z,6.03
2022-08-12T17:08:29.056Z,7.18
2022-08-12T17:09:34.358Z,5.55
2022-08-12T17:13:10.017Z,5.30
2022-08-12T17:15:50.296Z,8.57
2022-08-12T17:18:42.859Z,6.20
2022-08-12T17:20:51.438Z,5.95
2022-08-12T17:22:54.397Z,6.60
2022-08-12T17:25:29.935Z,7.03
2022-08-12T17:27:34.210Z,6.28
2022-08-12T17:30:02.969Z,7.25
2022-08-12T17:32:07.727Z,6.22
2022-08-12T17:34:17.484Z,5.68
2022-08-12T17:36:22.427Z,5.57
2022-08-12T17:38:28.251Z,5.45
2022-08-12T17:40:42.329Z,7.10
2022-08-12T17:42:47.634Z,6.47
2022-08-12T17:44:50.271Z,6.35
2022-08-12T17:46:55.469Z,6.40
2022-08-12T17:48:59.731Z,5.88
2022-08-12T17:51:04.448Z,6.50
2022-08-12T17:53:20.940Z,6.32
2022-08-12T17:55:40.910Z,5.10
2022-08-12T17:57:46.767Z,6.70
2022-08-12T17:59:55.057Z,5.28
2022-08-12T18:01:58.128Z,6.85
2022-08-12T18:04:21.249Z,6.55
2022-08-12T18:06:27.742Z,6.90
2022-08-12T18:08:30.487Z,7.03
2022-08-12T18:10:36.557Z,5.70
2022-08-12T18:12:50.993Z,6.35
2022-08-12T18:15:26.866Z,7.35
2022-08-12T18:17:41.081Z,6.05
2022-08-12T18:20:08.331Z,6.38
2022-08-12T18:22:43.264Z,7.47
2022-08-12T18:25:00.820Z,8.18
2022-08-12T18:27:30.353Z,6.55
2022-08-12T18:29:44.346Z,6.30
2022-08-12T18:31:59.827Z,7.45
2022-08-12T18:34:09.458Z,8.10
2022-08-12T18:36:22.743Z,6.63
2022-08-12T18:38:27.302Z,10.35
2022-08-12T18:40:31.490Z,6.90
2022-08-12T18:42:35.446Z,7.97
2022-08-12T18:44:38.160Z,6.15
2022-08-12T18:46:48.862Z,6.40
2022-08-12T18:49:18.300Z,7.72
2022-08-12T18:51:45.683Z,6.40
2022-08-12T18:54:06.261Z,6.78
2022-08-12T18:56:33.805Z,7.40
2022-08-12T18:58:53.181Z,7.43
2022-08-12T19:01:05.299Z,9.02
2022-08-12T19:03:23.640Z,6.97
2022-08-12T19:05:53.070Z,7.38
2022-08-12T19:08:02.192Z,9.63
2022-08-12T19:10:08.746Z,7.20
2022-08-12T19:12:20.245Z,8.90
2022-08-12T19:14:33.847Z,7.07
2022-08-12T19:24:02.486Z,7.60
2022-08-12T19:26:44.865Z,8.73
2022-08-12T19:30:07.218Z,7.43
2022-08-12T19:32:39.419Z,7.97
2022-08-12T19:36:06.884Z,8.10
2022-08-12T19:38:27.159Z,7.00
2022-08-12T19:40:59.262Z,8.98
2022-08-12T19:43:20.159Z,8.52
2022-08-12T19:45:43.720Z,10.20
2022-08-12T19:51:09.205Z,9.25
2022-08-12T19:53:30.108Z,8.25
2022-08-12T19:55:57.728Z,9.45
2022-08-12T19:58:04.828Z,8.57
2022-08-12T20:00:10.246Z,8.63
2022-08-12T20:02:17.626Z,7.40
2022-08-12T20:04:19.931Z,7.63
2022-08-12T20:06:24.447Z,7.43
2022-08-12T20:08:36.366Z,7.95
2022-08-12T20:10:45.696Z,7.50
2022-08-12T20:13:17.399Z,8.75
2022-08-12T20:15:26.574Z,8.48
2022-08-12T20:20:19.410Z,8.40
2022-08-12T20:22:36.298Z,7.75
2022-08-12T20:24:50.927Z,7.60
2022-08-12T20:27:02.028Z,8.15
2022-08-12T20:34:25.955Z,8.27
2022-08-12T20:36:41.207Z,8.60
2022-08-12T20:39:02.454Z,8.40
2022-08-12T20:41:05.286Z,8.57
2022-08-12T20:43:38.052Z,7.97
2022-08-12T20:46:02.829Z,7.55
2022-08-12T20:48:11.694Z,8.48
2022-08-12T20:50:38.496Z,10.15
2022-08-12T20:52:55.576Z,10.02
2022-08-12T20:55:15.325Z,8.98
2022-08-12T20:57:38.280Z,8.15
2022-08-12T21:02:30.324Z,7.90
2022-08-12T21:07:13.467Z,7.72
2022-08-12T21:09:22.127Z,7.53
2022-08-12T21:11:28.066Z,8.30
2022-08-12T21:13:38.787Z,7.50
2022-08-12T21:18:50.471Z,7.60
2022-08-12T21:21:03.753Z,10.45
2022-08-12T21:23:07.446Z,9.18
2022-08-12T21:25:14.639Z,7.90
2022-08-12T21:27:19.386Z,8.43
2022-08-12T21:29:23.634Z,8.65
2022-08-12T21:32:36.574Z,7.75
2022-08-12T21:34:41.015Z,8.55
2022-08-12T21:37:13.234Z,8.15
2022-08-12T21:39:37.117Z,8.38
2022-08-12T21:47:37.767Z,8.90
2022-08-12T21:49:55.040Z,7.30
2022-08-12T21:51:58.435Z,8.63
2022-08-12T21:54:07.847Z,8.70
2022-08-12T21:56:12.114Z,9.75
2022-08-12T22:00:47.045Z,9.57
2022-08-12T22:02:49.224Z,10.13
2022-08-12T22:04:52.925Z,8.38
2022-08-12T22:06:59.149Z,9.20
2022-08-12T22:09:02.774Z,8.38
2022-08-12T22:11:06.738Z,8.88
2022-08-12T22:14:06.925Z,8.35
2022-08-12T22:15:33.049Z,9.45
2022-08-12T22:17:50.334Z,11.20
2022-08-12T22:20:01.935Z,9.65
2022-08-12T22:22:06.433Z,9.27
2022-08-12T22:26:29.266Z,9.93
2022-08-12T22:28:45.638Z,9.43
2022-08-12T22:37:44.962Z,9.13
2022-08-12T22:39:49.758Z,9.43
2022-08-12T22:41:58.631Z,9.60
2022-08-12T22:44:04.337Z,9.35
2022-08-12T22:46:09.036Z,12.10
2022-08-12T22:48:17.659Z,10.60
2022-08-12T22:50:32.633Z,10.68
2022-08-12T22:52:37.178Z,9.32
2022-08-12T22:57:49.816Z,10.18
2022-08-12T22:59:59.028Z,9.98
2022-08-12T23:02:02.518Z,11.77
2022-08-12T23:04:11.294Z,11.75
2022-08-12T23:06:21.982Z,9.88
2022-08-12T23:08:30.087Z,10.30
2022-08-12T23:10:42.820Z,12.23
2022-08-12T23:12:47.454Z,11.35
2022-08-12T23:14:51.626Z,9.38
2022-08-12T23:16:55.026Z,9.80
2022-08-12T23:19:09.527Z,11.77
2022-08-12T23:21:19.284Z,10.40
2022-08-12T23:23:25.738Z,11.23
2022-08-12T23:25:32.571Z,10.88
2022-08-12T23:27:55.876Z,13.70
2022-08-12T23:30:18.021Z,11.02
2022-08-12T23:34:39.307Z,11.35
2022-08-12T23:36:50.128Z,10.73
2022-08-12T23:38:58.665Z,10.45
2022-08-12T23:41:04.446Z,10.45
2022-08-12T23:43:06.587Z,11.43
2022-08-12T23:45:20.492Z,11.18
2022-08-12T23:47:33.918Z,12.15
2022-08-12T23:49:56.998Z,13.30
2022-08-12T23:52:04.812Z,10.67
2022-08-12T23:54:08.977Z,10.18
2022-08-12T23:56:12.704Z,11.63
2022-08-12T23:58:21.824Z,13.07
